sensor_id;sensor_type;location;lat;lon;timestamp;temperature;humidity
13229;DHT22;6680;53.220;10.402;2023-07-29T00:02:02;18.40;99.90
13229;DHT22;6680;53.220;10.402;2023-07-29T00:04:30;18.40;99.90
13229;DHT22;6680;53.220;10.402;2023-07-29T00:06:56;18.30;99.90
13229;DHT22;6680;53.220;10.402;2023-07-29T00:09:23;18.00;99.90
13229;DHT22;6680;53.220;10.402;2023-07-29T00:11:51;18.20;99.90
13229;DHT22;6680;53.220;10.402;2023-07-29T00:14:18;18.10;99.90
13229;DHT22;6680;53.220;10.402;2023-07-29T00:16:45;18.00;99.90
13229;DHT22;6680;53.220;10.402;2023-07-29T00:19:12;18.00;99.90
13229;DHT22;6680;53.220;10.402;2023-07-29T00:21:39;17.90;99.90
13229;DHT22;6680;53.220;10.402;2023-07-29T00:24:06;17.90;99.90
13229;DHT22;6680;53.220;10.402;2023-07-29T00:26:33;17.90;99.90
13229;DHT22;6680;53.220;10.402;2023-07-29T00:29:02;17.80;99.90
13229;DHT22;6680;53.220;10.402;2023-07-29T00:31:28;17.80;99.90
13229;DHT22;6680;53.220;10.402;2023-07-29T00:33:55;17.70;99.90
13229;DHT22;6680;53.220;10.402;2023-07-29T00:36:23;17.70;99.90
13229;DHT22;6680;53.220;10.402;2023-07-29T00:38:50;17.70;99.90
13229;DHT22;6680;53.220;10.402;2023-07-29T00:41:18;17.70;99.90
13229;DHT22;6680;53.220;10.402;2023-07-29T00:43:45;17.60;99.90
13229;DHT22;6680;53.220;10.402;2023-07-29T00:46:14;17.60;99.90
13229;DHT22;6680;53.220;10.402;2023-07-29T00:48:41;17.60;99.90
13229;DHT22;6680;53.220;10.402;2023-07-29T00:51:07;17.50;99.90
13229;DHT22;6680;53.220;10.402;2023-07-29T00:53:34;17.50;99.90
13229;DHT22;6680;53.220;10.402;2023-07-29T00:56:01;17.40;99.90
13229;DHT22;6680;53.220;10.402;2023-07-29T00:58:27;17.40;99.90
13229;DHT22;6680;53.220;10.402;2023-07-29T01:00:54;17.30;99.90
13229;DHT22;6680;53.220;10.402;2023-07-29T01:03:23;17.50;99.90
13229;DHT22;6680;53.220;10.402;2023-07-29T01:05:59;17.40;99.90
13229;DHT22;6680;53.220;10.402;2023-07-29T01:08:33;17.40;99.90
13229;DHT22;6680;53.220;10.402;2023-07-29T01:11:11;17.40;99.90
13229;DHT22;6680;53.220;10.402;2023-07-29T01:13:44;17.50;99.90
13229;DHT22;6680;53.220;10.402;2023-07-29T01:16:15;17.60;99.90
13229;DHT22;6680;53.220;10.402;2023-07-29T01:18:47;17.60;99.90
13229;DHT22;6680;53.220;10.402;2023-07-29T01:21:17;17.60;99.90
13229;DHT22;6680;53.220;10.402;2023-07-29T01:23:45;17.70;99.90
13229;DHT22;6680;53.220;10.402;2023-07-29T01:26:12;17.70;99.90
13229;DHT22;6680;53.220;10.402;2023-07-29T01:28:39;17.80;99.90
13229;DHT22;6680;53.220;10.402;2023-07-29T01:31:10;17.80;99.90
13229;DHT22;6680;53.220;10.402;2023-07-29T01:33:42;17.80;99.90
13229;DHT22;6680;53.220;10.402;2023-07-29T01:36:13;17.80;99.90
13229;DHT22;6680;53.220;10.402;2023-07-29T01:38:42;17.90;99.90
13229;DHT22;6680;53.220;10.402;2023-07-29T01:41:12;17.90;99.90
13229;DHT22;6680;53.220;10.402;2023-07-29T01:43:39;18.00;99.90
13229;DHT22;6680;53.220;10.402;2023-07-29T01:46:09;17.90;99.90
13229;DHT22;6680;53.220;10.402;2023-07-29T01:48:36;17.90;99.90
13229;DHT22;6680;53.220;10.402;2023-07-29T01:51:03;18.00;99.90
13229;DHT22;6680;53.220;10.402;2023-07-29T01:53:30;17.90;99.90
13229;DHT22;6680;53.220;10.402;2023-07-29T01:55:56;17.80;99.90
13229;DHT22;6680;53.220;10.402;2023-07-29T01:58:24;17.80;99.90
13229;DHT22;6680;53.220;10.402;2023-07-29T02:00:51;17.80;99.90
13229;DHT22;6680;53.220;10.402;2023-07-29T02:03:18;18.00;99.90
13229;DHT22;6680;53.220;10.402;2023-07-29T02:05:44;17.80;99.90
13229;DHT22;6680;53.220;10.402;2023-07-29T02:08:11;17.80;99.90
13229;DHT22;6680;53.220;10.402;2023-07-29T02:10:38;17.80;99.90
13229;DHT22;6680;53.220;10.402;2023-07-29T02:13:04;17.80;99.90
13229;DHT22;6680;53.220;10.402;2023-07-29T02:15:32;17.80;99.90
13229;DHT22;6680;53.220;10.402;2023-07-29T02:17:59;17.80;99.90
13229;DHT22;6680;53.220;10.402;2023-07-29T02:20:27;17.70;99.90
13229;DHT22;6680;53.220;10.402;2023-07-29T02:22:54;17.70;99.90
13229;DHT22;6680;53.220;10.402;2023-07-29T02:25:20;17.60;99.90
13229;DHT22;6680;53.220;10.402;2023-07-29T02:27:47;17.60;99.90
13229;DHT22;6680;53.220;10.402;2023-07-29T02:30:14;17.50;99.90
13229;DHT22;6680;53.220;10.402;2023-07-29T02:32:42;17.40;99.90
13229;DHT22;6680;53.220;10.402;2023-07-29T02:35:08;17.40;99.90
13229;DHT22;6680;53.220;10.402;2023-07-29T02:37:35;17.40;99.90
13229;DHT22;6680;53.220;10.402;2023-07-29T02:40:02;17.30;99.90
13229;DHT22;6680;53.220;10.402;2023-07-29T02:42:30;17.20;99.90
13229;DHT22;6680;53.220;10.402;2023-07-29T02:44:57;17.20;99.90
13229;DHT22;6680;53.220;10.402;2023-07-29T02:47:24;17.20;99.90
13229;DHT22;6680;53.220;10.402;2023-07-29T02:49:52;17.20;99.90
13229;DHT22;6680;53.220;10.402;2023-07-29T02:52:18;17.20;99.90
13229;DHT22;6680;53.220;10.402;2023-07-29T02:54:45;17.10;99.90
13229;DHT22;6680;53.220;10.402;2023-07-29T02:57:14;17.10;99.90
13229;DHT22;6680;53.220;10.402;2023-07-29T02:59:42;17.10;99.90
13229;DHT22;6680;53.220;10.402;2023-07-29T03:02:09;17.10;99.90
13229;DHT22;6680;53.220;10.402;2023-07-29T03:04:36;17.10;99.90
13229;DHT22;6680;53.220;10.402;2023-07-29T03:07:04;17.00;99.90
13229;DHT22;6680;53.220;10.402;2023-07-29T03:09:31;17.00;99.90
13229;DHT22;6680;53.220;10.402;2023-07-29T03:11:58;17.00;99.90
13229;DHT22;6680;53.220;10.402;2023-07-29T03:14:25;17.00;99.90
13229;DHT22;6680;53.220;10.402;2023-07-29T03:16:51;17.00;99.90
13229;DHT22;6680;53.220;10.402;2023-07-29T03:19:19;17.00;99.90
13229;DHT22;6680;53.220;10.402;2023-07-29T03:21:45;17.00;99.90
13229;DHT22;6680;53.220;10.402;2023-07-29T03:24:13;16.90;99.90
13229;DHT22;6680;53.220;10.402;2023-07-29T03:26:40;16.90;99.90
13229;DHT22;6680;53.220;10.402;2023-07-29T03:29:07;17.00;99.90
13229;DHT22;6680;53.220;10.402;2023-07-29T03:31:33;17.00;99.90
13229;DHT22;6680;53.220;10.402;2023-07-29T03:34:00;17.00;99.90
13229;DHT22;6680;53.220;10.402;2023-07-29T03:36:27;17.00;99.90
13229;DHT22;6680;53.220;10.402;2023-07-29T03:38:54;17.10;99.90
13229;DHT22;6680;53.220;10.402;2023-07-29T03:41:22;17.10;99.90
13229;DHT22;6680;53.220;10.402;2023-07-29T03:43:48;17.20;99.90
13229;DHT22;6680;53.220;10.402;2023-07-29T03:46:15;17.20;99.90
13229;DHT22;6680;53.220;10.402;2023-07-29T03:48:45;17.30;99.90
13229;DHT22;6680;53.220;10.402;2023-07-29T03:51:11;17.30;99.90
13229;DHT22;6680;53.220;10.402;2023-07-29T03:53:38;17.40;99.90
13229;DHT22;6680;53.220;10.402;2023-07-29T03:56:05;17.40;99.90
13229;DHT22;6680;53.220;10.402;2023-07-29T03:58:33;17.40;99.90
13229;DHT22;6680;53.220;10.402;2023-07-29T04:01:00;17.40;99.90
13229;DHT22;6680;53.220;10.402;2023-07-29T04:03:26;17.40;99.90
13229;DHT22;6680;53.220;10.402;2023-07-29T04:05:53;17.40;99.90
13229;DHT22;6680;53.220;10.402;2023-07-29T04:08:20;17.40;99.90
13229;DHT22;6680;53.220;10.402;2023-07-29T04:10:46;17.40;99.90
13229;DHT22;6680;53.220;10.402;2023-07-29T04:13:14;17.20;99.90
13229;DHT22;6680;53.220;10.402;2023-07-29T04:15:42;17.30;99.90
13229;DHT22;6680;53.220;10.402;2023-07-29T04:18:09;17.40;99.90
13229;DHT22;6680;53.220;10.402;2023-07-29T04:20:35;17.40;99.90
13229;DHT22;6680;53.220;10.402;2023-07-29T04:23:02;17.50;99.90
13229;DHT22;6680;53.220;10.402;2023-07-29T04:25:29;17.50;99.90
13229;DHT22;6680;53.220;10.402;2023-07-29T04:27:55;17.60;99.90
13229;DHT22;6680;53.220;10.402;2023-07-29T04:30:23;17.70;99.90
13229;DHT22;6680;53.220;10.402;2023-07-29T04:32:51;17.80;99.90
13229;DHT22;6680;53.220;10.402;2023-07-29T04:35:18;17.90;99.90
13229;DHT22;6680;53.220;10.402;2023-07-29T04:37:44;18.00;99.90
13229;DHT22;6680;53.220;10.402;2023-07-29T04:40:13;18.10;99.90
13229;DHT22;6680;53.220;10.402;2023-07-29T04:42:40;18.30;99.90
13229;DHT22;6680;53.220;10.402;2023-07-29T04:45:07;18.30;99.90
13229;DHT22;6680;53.220;10.402;2023-07-29T04:47:33;18.50;99.90
13229;DHT22;6680;53.220;10.402;2023-07-29T04:50:01;18.80;99.90
13229;DHT22;6680;53.220;10.402;2023-07-29T04:52:28;19.10;99.90
13229;DHT22;6680;53.220;10.402;2023-07-29T04:54:55;19.30;99.90
13229;DHT22;6680;53.220;10.402;2023-07-29T04:57:22;19.50;99.90
13229;DHT22;6680;53.220;10.402;2023-07-29T04:59:48;19.70;99.90
13229;DHT22;6680;53.220;10.402;2023-07-29T05:02:15;19.80;99.90
13229;DHT22;6680;53.220;10.402;2023-07-29T05:04:42;19.80;99.90
13229;DHT22;6680;53.220;10.402;2023-07-29T05:07:10;19.90;99.90
13229;DHT22;6680;53.220;10.402;2023-07-29T05:09:36;19.90;99.90
13229;DHT22;6680;53.220;10.402;2023-07-29T05:12:04;19.90;99.90
13229;DHT22;6680;53.220;10.402;2023-07-29T05:14:30;19.90;99.90
13229;DHT22;6680;53.220;10.402;2023-07-29T05:16:57;19.90;99.90
13229;DHT22;6680;53.220;10.402;2023-07-29T05:19:24;20.00;99.90
13229;DHT22;6680;53.220;10.402;2023-07-29T05:21:50;20.00;99.90
13229;DHT22;6680;53.220;10.402;2023-07-29T05:24:18;19.90;99.90
13229;DHT22;6680;53.220;10.402;2023-07-29T05:26:45;20.00;99.90
13229;DHT22;6680;53.220;10.402;2023-07-29T05:29:12;20.00;99.90
13229;DHT22;6680;53.220;10.402;2023-07-29T05:31:38;20.00;99.90
13229;DHT22;6680;53.220;10.402;2023-07-29T05:34:05;20.00;99.90
13229;DHT22;6680;53.220;10.402;2023-07-29T05:36:32;20.10;99.90
13229;DHT22;6680;53.220;10.402;2023-07-29T05:38:58;20.10;99.90
13229;DHT22;6680;53.220;10.402;2023-07-29T05:41:26;20.20;99.90
13229;DHT22;6680;53.220;10.402;2023-07-29T05:43:54;20.20;99.90
13229;DHT22;6680;53.220;10.402;2023-07-29T05:46:21;20.40;99.90
13229;DHT22;6680;53.220;10.402;2023-07-29T05:48:47;20.90;99.90
13229;DHT22;6680;53.220;10.402;2023-07-29T05:51:14;21.30;99.90
13229;DHT22;6680;53.220;10.402;2023-07-29T05:53:41;21.50;99.90
13229;DHT22;6680;53.220;10.402;2023-07-29T05:56:07;21.70;99.90
13229;DHT22;6680;53.220;10.402;2023-07-29T05:58:37;22.10;99.90
13229;DHT22;6680;53.220;10.402;2023-07-29T06:01:03;22.40;99.90
13229;DHT22;6680;53.220;10.402;2023-07-29T06:03:30;22.90;99.90
13229;DHT22;6680;53.220;10.402;2023-07-29T06:05:57;23.00;99.90
13229;DHT22;6680;53.220;10.402;2023-07-29T06:10:53;23.50;99.90
13229;DHT22;6680;53.220;10.402;2023-07-29T06:13:20;24.10;99.90
13229;DHT22;6680;53.220;10.402;2023-07-29T06:15:48;24.00;99.90
13229;DHT22;6680;53.220;10.402;2023-07-29T06:18:15;24.20;99.90
13229;DHT22;6680;53.220;10.402;2023-07-29T06:20:42;24.20;99.90
13229;DHT22;6680;53.220;10.402;2023-07-29T06:23:08;24.00;99.90
13229;DHT22;6680;53.220;10.402;2023-07-29T06:28:02;23.50;99.90
13229;DHT22;6680;53.220;10.402;2023-07-29T06:30:29;23.40;99.90
13229;DHT22;6680;53.220;10.402;2023-07-29T06:32:57;23.20;99.90
13229;DHT22;6680;53.220;10.402;2023-07-29T06:37:51;23.00;99.90
13229;DHT22;6680;53.220;10.402;2023-07-29T06:40:17;22.90;99.90
13229;DHT22;6680;53.220;10.402;2023-07-29T06:42:44;23.00;99.90
13229;DHT22;6680;53.220;10.402;2023-07-29T06:45:11;23.10;99.90
13229;DHT22;6680;53.220;10.402;2023-07-29T06:47:37;23.10;99.90
13229;DHT22;6680;53.220;10.402;2023-07-29T06:50:06;23.00;99.90
13229;DHT22;6680;53.220;10.402;2023-07-29T06:52:33;23.10;99.90
13229;DHT22;6680;53.220;10.402;2023-07-29T06:54:59;23.10;99.90
13229;DHT22;6680;53.220;10.402;2023-07-29T06:57:27;23.10;99.90
13229;DHT22;6680;53.220;10.402;2023-07-29T06:59:53;23.10;99.90
13229;DHT22;6680;53.220;10.402;2023-07-29T07:02:20;23.20;99.90
13229;DHT22;6680;53.220;10.402;2023-07-29T07:04:47;23.20;99.90
13229;DHT22;6680;53.220;10.402;2023-07-29T07:07:15;23.30;99.90
13229;DHT22;6680;53.220;10.402;2023-07-29T07:09:41;23.40;99.90
13229;DHT22;6680;53.220;10.402;2023-07-29T07:12:08;23.40;99.90
13229;DHT22;6680;53.220;10.402;2023-07-29T07:14:35;23.50;99.90
13229;DHT22;6680;53.220;10.402;2023-07-29T07:17:01;23.60;99.90
13229;DHT22;6680;53.220;10.402;2023-07-29T07:19:28;23.60;99.90
13229;DHT22;6680;53.220;10.402;2023-07-29T07:21:55;23.70;99.90
13229;DHT22;6680;53.220;10.402;2023-07-29T07:24:23;23.50;99.90
13229;DHT22;6680;53.220;10.402;2023-07-29T07:26:49;23.50;99.90
13229;DHT22;6680;53.220;10.402;2023-07-29T07:29:16;23.50;99.90
13229;DHT22;6680;53.220;10.402;2023-07-29T07:31:49;23.50;99.90
13229;DHT22;6680;53.220;10.402;2023-07-29T07:34:16;23.40;99.90
13229;DHT22;6680;53.220;10.402;2023-07-29T07:36:43;23.30;99.90
13229;DHT22;6680;53.220;10.402;2023-07-29T07:39:10;23.20;99.90
13229;DHT22;6680;53.220;10.402;2023-07-29T07:41:38;23.10;99.90
13229;DHT22;6680;53.220;10.402;2023-07-29T07:44:04;22.90;99.90
13229;DHT22;6680;53.220;10.402;2023-07-29T07:46:31;22.70;99.90
13229;DHT22;6680;53.220;10.402;2023-07-29T07:48:58;22.70;99.90
13229;DHT22;6680;53.220;10.402;2023-07-29T07:51:24;22.70;99.90
13229;DHT22;6680;53.220;10.402;2023-07-29T07:53:51;22.70;99.90
13229;DHT22;6680;53.220;10.402;2023-07-29T07:56:17;22.90;99.90
13229;DHT22;6680;53.220;10.402;2023-07-29T07:58:46;23.00;99.90
13229;DHT22;6680;53.220;10.402;2023-07-29T08:01:12;23.10;99.90
13229;DHT22;6680;53.220;10.402;2023-07-29T08:03:40;23.20;99.90
13229;DHT22;6680;53.220;10.402;2023-07-29T08:06:06;23.20;99.90
13229;DHT22;6680;53.220;10.402;2023-07-29T08:08:33;23.20;99.90
13229;DHT22;6680;53.220;10.402;2023-07-29T08:11:00;23.10;99.90
13229;DHT22;6680;53.220;10.402;2023-07-29T08:13:26;22.90;99.90
13229;DHT22;6680;53.220;10.402;2023-07-29T08:15:54;22.90;99.90
13229;DHT22;6680;53.220;10.402;2023-07-29T08:18:21;22.90;99.90
13229;DHT22;6680;53.220;10.402;2023-07-29T08:20:52;22.90;99.90
13229;DHT22;6680;53.220;10.402;2023-07-29T08:23:20;23.20;99.90
13229;DHT22;6680;53.220;10.402;2023-07-29T08:25:53;23.20;99.90
13229;DHT22;6680;53.220;10.402;2023-07-29T08:28:21;23.40;99.90
13229;DHT22;6680;53.220;10.402;2023-07-29T08:30:48;23.50;99.90
13229;DHT22;6680;53.220;10.402;2023-07-29T08:33:16;23.90;99.90
13229;DHT22;6680;53.220;10.402;2023-07-29T08:35:43;23.90;99.90
13229;DHT22;6680;53.220;10.402;2023-07-29T08:38:09;24.00;99.90
13229;DHT22;6680;53.220;10.402;2023-07-29T08:40:40;24.00;99.90
13229;DHT22;6680;53.220;10.402;2023-07-29T08:43:09;23.80;99.90
13229;DHT22;6680;53.220;10.402;2023-07-29T08:45:36;23.70;99.90
13229;DHT22;6680;53.220;10.402;2023-07-29T08:48:07;23.60;99.90
13229;DHT22;6680;53.220;10.402;2023-07-29T08:50:35;23.60;99.90
13229;DHT22;6680;53.220;10.402;2023-07-29T08:53:04;23.60;99.90
13229;DHT22;6680;53.220;10.402;2023-07-29T08:55:31;23.60;99.90
13229;DHT22;6680;53.220;10.402;2023-07-29T08:57:59;23.50;99.90
13229;DHT22;6680;53.220;10.402;2023-07-29T09:00:27;23.30;99.90
13229;DHT22;6680;53.220;10.402;2023-07-29T09:02:54;23.00;99.90
13229;DHT22;6680;53.220;10.402;2023-07-29T09:05:21;22.90;99.90
13229;DHT22;6680;53.220;10.402;2023-07-29T09:07:51;22.70;99.90
13229;DHT22;6680;53.220;10.402;2023-07-29T09:10:21;22.60;99.90
13229;DHT22;6680;53.220;10.402;2023-07-29T09:12:49;22.40;99.90
13229;DHT22;6680;53.220;10.402;2023-07-29T09:15:26;22.40;99.90
13229;DHT22;6680;53.220;10.402;2023-07-29T09:17:53;22.30;99.90
13229;DHT22;6680;53.220;10.402;2023-07-29T09:20:24;22.10;99.90
13229;DHT22;6680;53.220;10.402;2023-07-29T09:22:53;21.90;99.90
13229;DHT22;6680;53.220;10.402;2023-07-29T09:25:23;21.70;99.90
13229;DHT22;6680;53.220;10.402;2023-07-29T09:27:50;21.50;99.90
13229;DHT22;6680;53.220;10.402;2023-07-29T09:30:17;21.20;99.90
13229;DHT22;6680;53.220;10.402;2023-07-29T09:32:44;20.90;99.90
13229;DHT22;6680;53.220;10.402;2023-07-29T09:35:12;20.70;99.90
13229;DHT22;6680;53.220;10.402;2023-07-29T09:37:39;20.50;99.90
13229;DHT22;6680;53.220;10.402;2023-07-29T09:40:13;20.40;99.90
13229;DHT22;6680;53.220;10.402;2023-07-29T09:42:47;20.30;99.90
13229;DHT22;6680;53.220;10.402;2023-07-29T09:45:20;20.30;99.90
13229;DHT22;6680;53.220;10.402;2023-07-29T09:47:47;20.20;99.90
13229;DHT22;6680;53.220;10.402;2023-07-29T09:50:13;20.20;99.90
13229;DHT22;6680;53.220;10.402;2023-07-29T09:52:41;20.20;99.90
13229;DHT22;6680;53.220;10.402;2023-07-29T09:55:10;20.20;99.90
13229;DHT22;6680;53.220;10.402;2023-07-29T09:57:38;20.30;99.90
13229;DHT22;6680;53.220;10.402;2023-07-29T10:00:06;20.50;99.90
13229;DHT22;6680;53.220;10.402;2023-07-29T10:02:37;20.80;99.90
13229;DHT22;6680;53.220;10.402;2023-07-29T10:05:05;21.00;99.90
13229;DHT22;6680;53.220;10.402;2023-07-29T10:07:33;21.30;99.90
13229;DHT22;6680;53.220;10.402;2023-07-29T10:10:02;21.50;99.90
13229;DHT22;6680;53.220;10.402;2023-07-29T10:12:30;21.60;99.90
13229;DHT22;6680;53.220;10.402;2023-07-29T10:14:59;21.60;99.90
13229;DHT22;6680;53.220;10.402;2023-07-29T10:17:26;21.70;99.90
13229;DHT22;6680;53.220;10.402;2023-07-29T10:19:54;21.70;99.90
13229;DHT22;6680;53.220;10.402;2023-07-29T10:22:25;21.70;99.90
13229;DHT22;6680;53.220;10.402;2023-07-29T10:24:54;21.80;99.90
13229;DHT22;6680;53.220;10.402;2023-07-29T10:27:24;22.00;99.90
13229;DHT22;6680;53.220;10.402;2023-07-29T10:29:55;22.20;99.90
13229;DHT22;6680;53.220;10.402;2023-07-29T10:32:25;22.40;99.90
13229;DHT22;6680;53.220;10.402;2023-07-29T10:34:52;22.60;99.90
13229;DHT22;6680;53.220;10.402;2023-07-29T10:37:19;22.90;99.90
13229;DHT22;6680;53.220;10.402;2023-07-29T10:39:52;23.20;99.90
13229;DHT22;6680;53.220;10.402;2023-07-29T10:42:19;23.40;99.90
13229;DHT22;6680;53.220;10.402;2023-07-29T10:44:50;23.60;99.90
13229;DHT22;6680;53.220;10.402;2023-07-29T10:47:22;23.70;99.90
13229;DHT22;6680;53.220;10.402;2023-07-29T10:49:51;23.80;99.90
13229;DHT22;6680;53.220;10.402;2023-07-29T10:52:29;23.80;99.90
13229;DHT22;6680;53.220;10.402;2023-07-29T10:54:56;23.90;99.90
13229;DHT22;6680;53.220;10.402;2023-07-29T10:57:31;24.00;99.90
13229;DHT22;6680;53.220;10.402;2023-07-29T10:59:58;24.00;99.90
13229;DHT22;6680;53.220;10.402;2023-07-29T11:02:30;23.80;99.90
13229;DHT22;6680;53.220;10.402;2023-07-29T11:04:57;23.80;99.90
13229;DHT22;6680;53.220;10.402;2023-07-29T11:07:25;23.80;99.90
13229;DHT22;6680;53.220;10.402;2023-07-29T11:10:00;23.80;99.90
13229;DHT22;6680;53.220;10.402;2023-07-29T11:12:38;23.90;99.90
13229;DHT22;6680;53.220;10.402;2023-07-29T11:15:13;24.10;99.90
13229;DHT22;6680;53.220;10.402;2023-07-29T11:17:42;24.20;99.90
13229;DHT22;6680;53.220;10.402;2023-07-29T11:20:10;24.20;99.90
13229;DHT22;6680;53.220;10.402;2023-07-29T11:22:37;24.10;99.90
13229;DHT22;6680;53.220;10.402;2023-07-29T11:25:05;24.10;99.90
13229;DHT22;6680;53.220;10.402;2023-07-29T11:27:33;24.20;99.90
13229;DHT22;6680;53.220;10.402;2023-07-29T11:30:00;24.30;99.90
13229;DHT22;6680;53.220;10.402;2023-07-29T11:32:28;24.40;99.90
13229;DHT22;6680;53.220;10.402;2023-07-29T11:34:56;24.50;99.90
13229;DHT22;6680;53.220;10.402;2023-07-29T11:37:23;24.50;99.90
13229;DHT22;6680;53.220;10.402;2023-07-29T11:39:49;24.60;99.90
13229;DHT22;6680;53.220;10.402;2023-07-29T11:44:43;24.60;99.90
13229;DHT22;6680;53.220;10.402;2023-07-29T11:47:12;24.50;99.90
13229;DHT22;6680;53.220;10.402;2023-07-29T11:49:40;24.50;99.90
13229;DHT22;6680;53.220;10.402;2023-07-29T11:52:09;24.30;99.90
13229;DHT22;6680;53.220;10.402;2023-07-29T11:54:37;24.20;99.90
13229;DHT22;6680;53.220;10.402;2023-07-29T11:57:05;24.30;99.90
13229;DHT22;6680;53.220;10.402;2023-07-29T11:59:33;24.50;99.90
13229;DHT22;6680;53.220;10.402;2023-07-29T12:02:00;24.70;99.90
13229;DHT22;6680;53.220;10.402;2023-07-29T12:04:28;24.90;99.90
13229;DHT22;6680;53.220;10.402;2023-07-29T12:06:55;25.00;99.90
13229;DHT22;6680;53.220;10.402;2023-07-29T12:09:24;25.00;99.90
13229;DHT22;6680;53.220;10.402;2023-07-29T12:11:52;25.00;99.90
13229;DHT22;6680;53.220;10.402;2023-07-29T12:14:19;25.00;99.90
13229;DHT22;6680;53.220;10.402;2023-07-29T12:16:48;25.00;99.90
13229;DHT22;6680;53.220;10.402;2023-07-29T12:19:15;25.00;99.90
13229;DHT22;6680;53.220;10.402;2023-07-29T12:21:43;25.00;99.90
13229;DHT22;6680;53.220;10.402;2023-07-29T12:24:11;24.80;99.90
13229;DHT22;6680;53.220;10.402;2023-07-29T12:26:40;24.80;99.90
13229;DHT22;6680;53.220;10.402;2023-07-29T12:29:14;24.70;99.90
13229;DHT22;6680;53.220;10.402;2023-07-29T12:31:41;24.60;99.90
13229;DHT22;6680;53.220;10.402;2023-07-29T12:34:08;24.70;99.90
13229;DHT22;6680;53.220;10.402;2023-07-29T12:36:44;24.70;99.90
13229;DHT22;6680;53.220;10.402;2023-07-29T12:39:18;24.70;99.90
13229;DHT22;6680;53.220;10.402;2023-07-29T12:41:45;24.80;99.90
13229;DHT22;6680;53.220;10.402;2023-07-29T12:44:12;24.70;99.90
13229;DHT22;6680;53.220;10.402;2023-07-29T12:46:39;24.50;99.90
13229;DHT22;6680;53.220;10.402;2023-07-29T12:49:06;24.30;99.90
13229;DHT22;6680;53.220;10.402;2023-07-29T12:51:33;24.20;99.90
13229;DHT22;6680;53.220;10.402;2023-07-29T12:54:00;24.00;99.90
13229;DHT22;6680;53.220;10.402;2023-07-29T12:56:26;24.00;99.90
13229;DHT22;6680;53.220;10.402;2023-07-29T12:58:54;24.20;99.90
13229;DHT22;6680;53.220;10.402;2023-07-29T13:01:21;24.40;99.90
13229;DHT22;6680;53.220;10.402;2023-07-29T13:03:48;24.40;99.90
13229;DHT22;6680;53.220;10.402;2023-07-29T13:06:15;24.40;99.90
13229;DHT22;6680;53.220;10.402;2023-07-29T13:08:42;24.20;99.90
13229;DHT22;6680;53.220;10.402;2023-07-29T13:11:08;24.10;99.90
13229;DHT22;6680;53.220;10.402;2023-07-29T13:16:04;23.90;99.90
13229;DHT22;6680;53.220;10.402;2023-07-29T13:20:58;23.90;99.90
13229;DHT22;6680;53.220;10.402;2023-07-29T13:23:26;24.00;99.90
13229;DHT22;6680;53.220;10.402;2023-07-29T13:25:53;23.90;99.90
13229;DHT22;6680;53.220;10.402;2023-07-29T13:28:20;24.00;99.90
13229;DHT22;6680;53.220;10.402;2023-07-29T13:30:47;24.10;99.90
13229;DHT22;6680;53.220;10.402;2023-07-29T13:33:15;24.10;99.90
13229;DHT22;6680;53.220;10.402;2023-07-29T13:40:36;24.10;99.90
13229;DHT22;6680;53.220;10.402;2023-07-29T13:43:03;24.20;99.90
13229;DHT22;6680;53.220;10.402;2023-07-29T13:45:30;24.10;99.90
13229;DHT22;6680;53.220;10.402;2023-07-29T13:47:57;24.00;99.90
13229;DHT22;6680;53.220;10.402;2023-07-29T13:50:25;23.80;99.90
13229;DHT22;6680;53.220;10.402;2023-07-29T13:52:51;23.70;99.90
13229;DHT22;6680;53.220;10.402;2023-07-29T13:55:18;23.80;99.90
13229;DHT22;6680;53.220;10.402;2023-07-29T13:57:45;23.80;99.90
13229;DHT22;6680;53.220;10.402;2023-07-29T14:00:12;23.90;99.90
13229;DHT22;6680;53.220;10.402;2023-07-29T14:02:39;24.00;99.90
13229;DHT22;6680;53.220;10.402;2023-07-29T14:05:06;24.10;99.90
13229;DHT22;6680;53.220;10.402;2023-07-29T14:07:34;24.20;99.90
13229;DHT22;6680;53.220;10.402;2023-07-29T14:10:01;24.20;99.90
13229;DHT22;6680;53.220;10.402;2023-07-29T14:12:28;24.10;99.90
13229;DHT22;6680;53.220;10.402;2023-07-29T14:14:54;24.10;99.90
13229;DHT22;6680;53.220;10.402;2023-07-29T14:19:48;24.00;99.90
13229;DHT22;6680;53.220;10.402;2023-07-29T14:22:15;24.00;99.90
13229;DHT22;6680;53.220;10.402;2023-07-29T14:24:43;24.00;99.90
13229;DHT22;6680;53.220;10.402;2023-07-29T14:27:09;24.10;99.90
13229;DHT22;6680;53.220;10.402;2023-07-29T14:29:36;24.10;99.90
13229;DHT22;6680;53.220;10.402;2023-07-29T14:32:04;24.10;99.90
13229;DHT22;6680;53.220;10.402;2023-07-29T14:36:57;24.10;99.90
13229;DHT22;6680;53.220;10.402;2023-07-29T14:39:24;24.20;99.90
13229;DHT22;6680;53.220;10.402;2023-07-29T14:41:52;24.10;99.90
13229;DHT22;6680;53.220;10.402;2023-07-29T14:44:19;24.10;99.90
13229;DHT22;6680;53.220;10.402;2023-07-29T14:46:46;24.10;99.90
13229;DHT22;6680;53.220;10.402;2023-07-29T14:49:12;24.10;99.90
13229;DHT22;6680;53.220;10.402;2023-07-29T14:51:39;24.00;99.90
13229;DHT22;6680;53.220;10.402;2023-07-29T14:54:06;23.90;99.90
13229;DHT22;6680;53.220;10.402;2023-07-29T14:56:32;23.90;99.90
13229;DHT22;6680;53.220;10.402;2023-07-29T14:59:00;23.90;99.90
13229;DHT22;6680;53.220;10.402;2023-07-29T15:01:27;23.80;99.90
13229;DHT22;6680;53.220;10.402;2023-07-29T15:03:54;23.80;99.90
13229;DHT22;6680;53.220;10.402;2023-07-29T15:06:21;23.80;99.90
13229;DHT22;6680;53.220;10.402;2023-07-29T15:08:47;23.80;99.90
13229;DHT22;6680;53.220;10.402;2023-07-29T15:13:41;23.80;99.90
13229;DHT22;6680;53.220;10.402;2023-07-29T15:16:09;23.80;99.90
13229;DHT22;6680;53.220;10.402;2023-07-29T15:21:03;23.90;99.90
13229;DHT22;6680;53.220;10.402;2023-07-29T15:23:30;23.80;99.90
13229;DHT22;6680;53.220;10.402;2023-07-29T15:25:57;23.80;99.90
13229;DHT22;6680;53.220;10.402;2023-07-29T15:28:24;23.80;99.90
13229;DHT22;6680;53.220;10.402;2023-07-29T15:30:52;23.90;99.90
13229;DHT22;6680;53.220;10.402;2023-07-29T15:33:20;23.80;99.90
13229;DHT22;6680;53.220;10.402;2023-07-29T15:35:46;23.80;99.90
13229;DHT22;6680;53.220;10.402;2023-07-29T15:40:41;23.80;99.90
13229;DHT22;6680;53.220;10.402;2023-07-29T15:43:08;23.80;99.90
13229;DHT22;6680;53.220;10.402;2023-07-29T15:45:34;23.70;99.90
13229;DHT22;6680;53.220;10.402;2023-07-29T15:48:01;23.80;99.90
13229;DHT22;6680;53.220;10.402;2023-07-29T15:50:30;23.80;99.90
13229;DHT22;6680;53.220;10.402;2023-07-29T15:52:56;23.80;99.90
13229;DHT22;6680;53.220;10.402;2023-07-29T15:55:23;23.90;99.90
13229;DHT22;6680;53.220;10.402;2023-07-29T15:57:50;23.80;99.90
13229;DHT22;6680;53.220;10.402;2023-07-29T16:00:17;23.90;99.90
13229;DHT22;6680;53.220;10.402;2023-07-29T16:02:43;23.80;99.90
13229;DHT22;6680;53.220;10.402;2023-07-29T16:05:10;23.80;99.90